Time,TemperatureF,DewpointF,PressureIn,WindDirection,WindDirectionDegrees,WindSpeedMPH,WindSpeedGustMPH,Humidity,HourlyPrecipIn,Conditions,Clouds,dailyrainin,SoftwareType,DateUTC
2013-03-18 00:01:00,52.6,37.4,30.00,NNW,330,0.0,0.0,56,0.00,,,0.00,WeatherCatV1.10B1784,2013-03-18 07:01:00,
2013-03-18 00:06:00,52.5,37.3,30.00,NNW,330,0.0,0.0,56,0.00,,,0.00,WeatherCatV1.10B1784,2013-03-18 07:06:00,
2013-03-18 00:11:00,52.3,37.5,30.00,NNW,330,0.0,0.0,57,0.00,,,0.00,WeatherCatV1.10B1784,2013-03-18 07:11:00,
2013-03-18 00:16:00,52.2,37.4,29.99,NNW,330,0.0,0.0,57,0.00,,,0.00,WeatherCatV1.10B1784,2013-03-18 07:16:00,
2013-03-18 00:21:00,52.1,36.4,29.99,NNW,330,0.0,0.0,55,0.00,,,0.00,WeatherCatV1.10B1784,2013-03-18 07:21:00,
2013-03-18 00:26:00,52.0,36.3,29.99,NNW,330,0.0,0.0,55,0.00,,,0.00,WeatherCatV1.10B1784,2013-03-18 07:26:00,
2013-03-18 00:31:00,51.9,35.3,29.99,NNW,330,0.0,0.0,53,0.00,,,0.00,WeatherCatV1.10B1784,2013-03-18 07:31:00,
2013-03-18 00:36:00,51.9,35.3,29.99,NNW,330,0.0,0.0,53,0.00,,,0.00,WeatherCatV1.10B1784,2013-03-18 07:36:00,
2013-03-18 00:41:00,51.9,34.3,29.99,NNW,330,0.0,0.0,51,0.00,,,0.00,WeatherCatV1.10B1784,2013-03-18 07:41:00,
2013-03-18 00:46:00,51.9,34.8,29.99,NNW,330,0.0,0.0,52,0.00,,,0.00,WeatherCatV1.10B1784,2013-03-18 07:46:00,
2013-03-18 00:51:00,51.9,34.8,29.99,NNW,330,0.0,0.0,52,0.00,,,0.00,WeatherCatV1.10B1784,2013-03-18 07:51:00,
2013-03-18 00:56:00,51.9,34.8,29.99,NNW,330,0.0,0.0,52,0.00,,,0.00,WeatherCatV1.10B1784,2013-03-18 07:56:00,
2013-03-18 01:01:00,51.9,35.8,29.99,NNW,330,0.0,0.0,54,0.00,,,0.00,WeatherCatV1.10B1784,2013-03-18 08:01:00,
2013-03-18 01:06:00,51.9,36.2,29.99,NNE,21,0.0,0.0,55,0.00,,,0.00,WeatherCatV1.10B1784,2013-03-18 08:06:00,
2013-03-18 01:11:00,52.0,36.8,29.99,NNE,21,0.0,0.0,56,0.00,,,0.00,WeatherCatV1.10B1784,2013-03-18 08:11:00,
2013-03-18 01:16:00,51.9,36.7,30.00,NNE,21,0.0,0.0,56,0.00,,,0.00,WeatherCatV1.10B1784,2013-03-18 08:16:00,
2013-03-18 01:21:00,51.5,36.8,30.00,NNE,21,0.0,1.0,57,0.00,,,0.00,WeatherCatV1.10B1784,2013-03-18 08:21:00,
2013-03-18 01:26:00,51.1,36.4,30.00,NNE,21,0.0,0.0,57,0.00,,,0.00,WeatherCatV1.10B1784,2013-03-18 08:26:00,
2013-03-18 01:31:00,50.8,36.6,30.00,NNE,21,0.0,0.0,58,0.00,,,0.00,WeatherCatV1.10B1784,2013-03-18 08:31:00,
2013-03-18 01:36:00,50.6,36.8,30.00,NNE,21,0.0,0.0,59,0.00,,,0.00,WeatherCatV1.10B1784,2013-03-18 08:36:00,
2013-03-18 01:41:00,50.5,36.7,30.00,NNE,21,0.0,1.0,59,0.00,,,0.00,WeatherCatV1.10B1784,2013-03-18 08:41:00,
2013-03-18 01:46:00,50.3,36.5,30.00,NNE,21,0.0,0.0,59,0.00,,,0.00,WeatherCatV1.10B1784,2013-03-18 08:46:00,
2013-03-18 01:51:00,50.0,36.7,30.00,NNE,21,0.0,0.0,60,0.00,,,0.00,WeatherCatV1.10B1784,2013-03-18 08:51:00,
2013-03-18 01:56:00,49.6,36.3,30.00,NNW,327,2.0,3.0,60,0.00,,,0.00,WeatherCatV1.10B1784,2013-03-18 08:56:00,
2013-03-18 02:01:00,49.5,36.2,30.00,NNW,330,0.0,0.0,60,0.00,,,0.00,WeatherCatV1.10B1784,2013-03-18 09:01:00,
2013-03-18 02:06:00,49.6,35.0,30.00,NNW,339,2.0,2.0,57,0.00,,,0.00,WeatherCatV1.10B1784,2013-03-18 09:06:00,
2013-03-18 02:11:00,50.2,33.7,30.00,NNW,331,2.0,4.0,53,0.00,,,0.00,WeatherCatV1.10B1784,2013-03-18 09:11:00,
2013-03-18 02:16:00,51.2,33.2,30.00,NNW,335,2.0,5.0,50,0.00,,,0.00,WeatherCatV1.10B1784,2013-03-18 09:16:00,
2013-03-18 02:21:00,51.9,31.2,30.00,NNW,337,0.0,3.0,45,0.00,,,0.00,WeatherCatV1.10B1784,2013-03-18 09:21:00,
2013-03-18 02:26:00,52.1,31.4,30.00,NNW,329,0.0,1.0,45,0.00,,,0.00,WeatherCatV1.10B1784,2013-03-18 09:26:00,
2013-03-18 02:31:00,52.1,29.1,30.00,NNW,329,0.0,1.0,41,0.00,,,0.00,WeatherCatV1.10B1784,2013-03-18 09:31:00,
2013-03-18 02:36:00,52.2,29.2,30.00,NNW,347,2.0,4.0,41,0.00,,,0.00,WeatherCatV1.10B1784,2013-03-18 09:36:00,
2013-03-18 02:41:00,52.8,29.2,30.00,NNW,329,2.0,3.0,40,0.00,,,0.00,WeatherCatV1.10B1784,2013-03-18 09:41:00,
2013-03-18 02:46:00,53.2,29.5,29.99,NNW,333,2.0,2.0,40,0.00,,,0.00,WeatherCatV1.10B1784,2013-03-18 09:46:00,
2013-03-18 02:51:00,53.2,29.5,29.99,NNW,333,2.0,3.0,40,0.00,,,0.00,WeatherCatV1.10B1784,2013-03-18 09:51:00,
2013-03-18 02:56:00,53.2,28.3,29.99,NNW,335,1.0,3.0,38,0.00,,,0.00,WeatherCatV1.10B1784,2013-03-18 09:56:00,
2013-03-18 03:01:00,53.6,28.0,29.99,NNW,334,0.0,1.0,37,0.00,,,0.00,WeatherCatV1.10B1784,2013-03-18 10:01:00,
2013-03-18 03:06:00,53.8,28.8,29.99,NNW,334,0.0,0.0,38,0.00,,,0.00,WeatherCatV1.10B1784,2013-03-18 10:06:00,
2013-03-18 03:11:00,53.8,30.0,29.99,NNW,335,0.0,1.0,40,0.00,,,0.00,WeatherCatV1.10B1784,2013-03-18 10:11:00,
2013-03-18 03:16:00,53.5,27.9,29.99,NNW,341,0.0,1.0,37,0.00,,,0.00,WeatherCatV1.10B1784,2013-03-18 10:16:00,
2013-03-18 03:21:00,53.5,27.9,29.99,NNW,340,2.0,2.0,37,0.00,,,0.00,WeatherCatV1.10B1784,2013-03-18 10:21:00,
2013-03-18 03:26:00,53.7,28.7,29.98,NNW,337,2.0,2.0,38,0.00,,,0.00,WeatherCatV1.10B1784,2013-03-18 10:26:00,
2013-03-18 03:31:00,53.8,28.8,29.98,NNW,338,3.0,4.0,38,0.00,,,0.00,WeatherCatV1.10B1784,2013-03-18 10:31:00,
2013-03-18 03:36:00,54.1,29.1,29.98,NNW,331,3.0,4.0,38,0.00,,,0.00,WeatherCatV1.10B1784,2013-03-18 10:36:00,
2013-03-18 03:42:00,54.2,29.8,29.97,NNW,331,4.0,5.0,39,0.00,,,0.00,WeatherCatV1.10B1784,2013-03-18 10:42:00,
2013-03-18 03:47:00,54.3,30.5,29.97,North,350,2.0,4.0,40,0.00,,,0.00,WeatherCatV1.10B1784,2013-03-18 10:47:00,
2013-03-18 03:52:00,54.3,31.1,29.97,ENE,64,0.0,4.0,41,0.00,,,0.00,WeatherCatV1.10B1784,2013-03-18 10:52:00,
2013-03-18 03:57:00,54.5,31.3,29.97,North,350,0.0,3.0,41,0.00,,,0.00,WeatherCatV1.10B1784,2013-03-18 10:57:00,
2013-03-18 04:02:00,54.6,31.4,29.97,North,350,0.0,0.0,41,0.00,,,0.00,WeatherCatV1.10B1784,2013-03-18 11:02:00,
2013-03-18 04:07:00,54.5,31.9,29.97,North,350,0.0,0.0,42,0.00,,,0.00,WeatherCatV1.10B1784,2013-03-18 11:07:00,
2013-03-18 04:12:00,54.3,31.1,29.97,North,349,0.0,1.0,41,0.00,,,0.00,WeatherCatV1.10B1784,2013-03-18 11:12:00,
2013-03-18 04:17:00,54.1,30.9,29.97,North,349,0.0,0.0,41,0.00,,,0.00,WeatherCatV1.10B1784,2013-03-18 11:17:00,
2013-03-18 04:22:00,54.1,30.9,29.97,North,349,0.0,0.0,41,0.00,,,0.00,WeatherCatV1.10B1784,2013-03-18 11:22:00,
2013-03-18 04:27:00,54.1,31.5,29.97,North,349,0.0,0.0,42,0.00,,,0.00,WeatherCatV1.10B1784,2013-03-18 11:27:00,
2013-03-18 04:32:00,54.0,31.4,29.97,North,349,0.0,0.0,42,0.00,,,0.00,WeatherCatV1.10B1784,2013-03-18 11:32:00,
2013-03-18 04:37:00,53.8,31.8,29.97,North,349,0.0,0.0,43,0.00,,,0.00,WeatherCatV1.10B1784,2013-03-18 11:37:00,
2013-03-18 04:42:00,53.6,31.7,29.97,North,349,0.0,0.0,43,0.00,,,0.00,WeatherCatV1.10B1784,2013-03-18 11:42:00,
2013-03-18 04:47:00,53.4,30.9,29.97,North,349,0.0,0.0,42,0.00,,,0.00,WeatherCatV1.10B1784,2013-03-18 11:47:00,
2013-03-18 04:52:00,53.0,32.2,29.97,North,349,0.0,0.0,45,0.00,,,0.00,WeatherCatV1.10B1784,2013-03-18 11:52:00,
2013-03-18 04:57:00,52.1,32.0,29.97,NNW,348,1.0,1.0,46,0.00,,,0.00,WeatherCatV1.10B1784,2013-03-18 11:57:00,
2013-03-18 05:02:00,51.0,32.0,29.97,NW,325,2.0,3.0,48,0.00,,,0.00,WeatherCatV1.10B1784,2013-03-18 12:02:00,
2013-03-18 05:07:00,50.6,31.6,29.97,NNW,332,2.0,3.0,48,0.00,,,0.00,WeatherCatV1.10B1784,2013-03-18 12:07:00,
2013-03-18 05:12:00,50.5,31.5,29.97,NNW,333,1.0,1.0,48,0.00,,,0.00,WeatherCatV1.10B1784,2013-03-18 12:12:00,
2013-03-18 05:17:00,50.3,30.8,29.97,NNW,344,0.0,0.0,47,0.00,,,0.00,WeatherCatV1.10B1784,2013-03-18 12:17:00,
2013-03-18 05:22:00,50.3,31.4,29.97,NNW,344,0.0,0.0,48,0.00,,,0.00,WeatherCatV1.10B1784,2013-03-18 12:22:00,
2013-03-18 05:27:00,50.1,30.7,29.98,NNW,344,0.0,0.0,47,0.00,,,0.00,WeatherCatV1.10B1784,2013-03-18 12:27:00,
2013-03-18 05:32:00,50.1,30.7,29.98,NNW,343,0.0,0.0,47,0.00,,,0.00,WeatherCatV1.10B1784,2013-03-18 12:32:00,
2013-03-18 05:37:00,50.3,30.8,29.98,NNW,333,0.0,2.0,47,0.00,,,0.00,WeatherCatV1.10B1784,2013-03-18 12:37:00,
2013-03-18 05:42:00,50.6,31.1,29.97,NNW,331,0.0,1.0,47,0.00,,,0.00,WeatherCatV1.10B1784,2013-03-18 12:42:00,
2013-03-18 05:47:00,50.9,30.9,29.97,NNW,334,1.0,2.0,46,0.00,,,0.00,WeatherCatV1.10B1784,2013-03-18 12:47:00,
2013-03-18 05:52:00,51.4,30.8,29.97,NNW,341,2.0,3.0,45,0.00,,,0.00,WeatherCatV1.10B1784,2013-03-18 12:52:00,
2013-03-18 05:57:00,52.1,30.9,29.97,NNW,341,2.0,3.0,44,0.00,,,0.00,WeatherCatV1.10B1784,2013-03-18 12:57:00,
2013-03-18 06:02:00,52.6,30.2,29.97,NNW,335,2.0,2.0,42,0.00,,,0.00,WeatherCatV1.10B1784,2013-03-18 13:02:00,
2013-03-18 06:07:00,52.9,31.0,29.97,NNW,332,2.0,3.0,43,0.00,,,0.00,WeatherCatV1.10B1784,2013-03-18 13:07:00,
2013-03-18 06:12:00,53.1,30.0,29.97,NNW,337,0.0,2.0,41,0.00,,,0.00,WeatherCatV1.10B1784,2013-03-18 13:12:00,
2013-03-18 06:17:00,53.2,28.9,29.97,NNW,337,0.0,0.0,39,0.00,,,0.00,WeatherCatV1.10B1784,2013-03-18 13:17:00,
2013-03-18 06:22:00,53.3,29.0,29.97,NNW,337,0.0,0.0,39,0.00,,,0.00,WeatherCatV1.10B1784,2013-03-18 13:22:00,
2013-03-18 06:27:00,53.3,28.3,29.98,NNW,337,0.0,0.0,38,0.00,,,0.00,WeatherCatV1.10B1784,2013-03-18 13:27:00,
2013-03-18 06:32:00,53.3,29.0,29.98,NNW,337,0.0,0.0,39,0.00,,,0.00,WeatherCatV1.10B1784,2013-03-18 13:32:00,
2013-03-18 06:37:00,53.3,28.3,29.98,NNW,337,0.0,0.0,38,0.00,,,0.00,WeatherCatV1.10B1784,2013-03-18 13:37:00,
2013-03-18 06:42:00,53.2,28.9,29.98,NNW,337,0.0,0.0,39,0.00,,,0.00,WeatherCatV1.10B1784,2013-03-18 13:42:00,
2013-03-18 06:47:00,53.2,29.5,29.98,NNW,337,0.0,0.0,40,0.00,,,0.00,WeatherCatV1.10B1784,2013-03-18 13:47:00,
2013-03-18 06:52:00,53.1,30.0,29.98,NNW,337,0.0,0.0,41,0.00,,,0.00,WeatherCatV1.10B1784,2013-03-18 13:52:00,
2013-03-18 06:57:00,52.8,30.3,29.99,NNW,337,1.0,1.0,42,0.00,,,0.00,WeatherCatV1.10B1784,2013-03-18 13:57:00,
2013-03-18 07:02:00,52.4,29.4,29.99,NNW,337,0.0,0.0,41,0.00,,,0.00,WeatherCatV1.10B1784,2013-03-18 14:02:00,
2013-03-18 07:07:00,52.1,30.3,29.99,NNW,337,0.0,0.0,43,0.00,,,0.00,WeatherCatV1.10B1784,2013-03-18 14:07:00,
2013-03-18 07:12:00,51.6,30.4,29.99,NNW,337,0.0,0.0,44,0.00,,,0.00,WeatherCatV1.10B1784,2013-03-18 14:12:00,
2013-03-18 07:17:00,51.2,31.1,29.99,NNW,337,0.0,0.0,46,0.00,,,0.00,WeatherCatV1.10B1784,2013-03-18 14:17:00,
2013-03-18 07:22:00,50.7,31.7,29.99,NNW,336,2.0,2.0,48,0.00,,,0.00,WeatherCatV1.10B1784,2013-03-18 14:22:00,
2013-03-18 07:27:00,50.0,31.1,29.99,NNW,337,0.0,0.0,48,0.00,,,0.00,WeatherCatV1.10B1784,2013-03-18 14:27:00,
2013-03-18 07:32:00,49.8,30.4,29.99,NNW,339,0.0,0.0,47,0.00,,,0.00,WeatherCatV1.10B1784,2013-03-18 14:32:00,
2013-03-18 07:37:00,49.8,30.4,29.99,NNW,339,0.0,0.0,47,0.00,,,0.00,WeatherCatV1.10B1784,2013-03-18 14:37:00,
2013-03-18 07:42:00,49.9,30.5,29.99,NNW,339,0.0,0.0,47,0.00,,,0.00,WeatherCatV1.10B1784,2013-03-18 14:42:00,
2013-03-18 07:47:00,50.0,31.6,29.99,NNW,338,1.0,1.0,49,0.00,,,0.00,WeatherCatV1.10B1784,2013-03-18 14:47:00,
2013-03-18 07:52:00,50.2,31.3,29.99,NNW,339,0.0,0.0,48,0.00,,,0.00,WeatherCatV1.10B1784,2013-03-18 14:52:00,
2013-03-18 07:57:00,50.4,30.9,30.00,NNW,339,0.0,0.0,47,0.00,,,0.00,WeatherCatV1.10B1784,2013-03-18 14:57:00,
2013-03-18 08:02:00,50.8,30.8,30.00,NNW,339,0.0,0.0,46,0.00,,,0.00,WeatherCatV1.10B1784,2013-03-18 15:02:00,
2013-03-18 08:07:00,51.3,30.7,30.00,NNW,339,0.0,0.0,45,0.00,,,0.00,WeatherCatV1.10B1784,2013-03-18 15:07:00,
2013-03-18 08:12:00,52.1,32.0,30.01,NNW,339,0.0,0.0,46,0.00,,,0.00,WeatherCatV1.10B1784,2013-03-18 15:12:00,
2013-03-18 08:17:00,52.9,32.1,30.01,NNW,339,0.0,0.0,45,0.00,,,0.00,WeatherCatV1.10B1784,2013-03-18 15:17:00,
2013-03-18 08:22:00,53.5,32.7,30.01,NNW,340,0.0,0.0,45,0.00,,,0.00,WeatherCatV1.10B1784,2013-03-18 15:22:00,
2013-03-18 08:27:00,54.1,33.2,30.01,NNW,341,0.0,1.0,45,0.00,,,0.00,WeatherCatV1.10B1784,2013-03-18 15:27:00,
2013-03-18 08:32:00,54.7,33.8,30.01,NNW,341,0.0,1.0,45,0.00,,,0.00,WeatherCatV1.10B1784,2013-03-18 15:32:00,
2013-03-18 08:37:00,55.1,34.1,30.01,NNW,340,0.0,0.0,45,0.00,,,0.00,WeatherCatV1.10B1784,2013-03-18 15:37:00,
2013-03-18 08:42:00,55.6,33.5,30.00,NNW,340,0.0,1.0,43,0.00,,,0.00,WeatherCatV1.10B1784,2013-03-18 15:42:00,
2013-03-18 08:47:00,56.1,33.3,30.00,NNW,339,0.0,0.0,42,0.00,,,0.00,WeatherCatV1.10B1784,2013-03-18 15:47:00,
2013-03-18 08:52:00,56.5,34.3,30.00,NNW,341,0.0,0.0,43,0.00,,,0.00,WeatherCatV1.10B1784,2013-03-18 15:52:00,
2013-03-18 08:57:00,56.9,37.9,30.01,NNW,341,0.0,0.0,49,0.00,,,0.00,WeatherCatV1.10B1784,2013-03-18 15:57:00,
2013-03-18 09:02:00,57.0,39.1,30.01,East,88,0.0,1.0,51,0.00,,,0.00,WeatherCatV1.10B1784,2013-03-18 16:02:00,
2013-03-18 09:07:00,57.0,35.3,30.01,ESE,102,0.0,1.0,44,0.00,,,0.00,WeatherCatV1.10B1784,2013-03-18 16:07:00,
2013-03-18 09:12:00,56.9,35.2,30.01,East,96,1.0,1.0,44,0.00,,,0.00,WeatherCatV1.10B1784,2013-03-18 16:12:00,
2013-03-18 09:17:00,57.0,36.4,30.01,North,5,0.0,2.0,46,0.00,,,0.00,WeatherCatV1.10B1784,2013-03-18 16:17:00,
2013-03-18 09:22:00,57.3,35.6,30.01,North,5,0.0,0.0,44,0.00,,,0.00,WeatherCatV1.10B1784,2013-03-18 16:22:00,
2013-03-18 09:27:00,57.7,37.6,30.02,NNE,15,0.0,0.0,47,0.00,,,0.00,WeatherCatV1.10B1784,2013-03-18 16:27:00,
2013-03-18 09:32:00,57.9,37.8,30.02,NNE,15,0.0,0.0,47,0.00,,,0.00,WeatherCatV1.10B1784,2013-03-18 16:32:00,
2013-03-18 09:37:00,58.4,38.8,30.02,East,90,0.0,0.0,48,0.00,,,0.00,WeatherCatV1.10B1784,2013-03-18 16:37:00,
2013-03-18 09:42:00,58.9,39.2,30.02,ESE,115,0.0,0.0,48,0.00,,,0.00,WeatherCatV1.10B1784,2013-03-18 16:42:00,
2013-03-18 09:47:00,59.0,39.3,30.02,SE,144,1.0,1.0,48,0.00,,,0.00,WeatherCatV1.10B1784,2013-03-18 16:47:00,
2013-03-18 09:52:00,59.0,40.4,30.02,SE,146,1.0,2.0,50,0.00,,,0.00,WeatherCatV1.10B1784,2013-03-18 16:52:00,
2013-03-18 09:57:00,58.7,41.1,30.03,SE,146,0.0,1.0,52,0.00,,,0.00,WeatherCatV1.10B1784,2013-03-18 16:57:00,
2013-03-18 10:02:00,58.0,41.4,30.03,SE,146,0.0,0.0,54,0.00,,,0.00,WeatherCatV1.10B1784,2013-03-18 17:02:00,
2013-03-18 10:07:00,57.3,42.2,30.03,SE,146,0.0,0.0,57,0.00,,,0.00,WeatherCatV1.10B1784,2013-03-18 17:07:00,
2013-03-18 10:12:00,56.9,39.9,30.03,SE,146,0.0,0.0,53,0.00,,,0.00,WeatherCatV1.10B1784,2013-03-18 17:12:00,
2013-03-18 10:17:00,56.7,40.7,30.03,SE,146,0.0,0.0,55,0.00,,,0.00,WeatherCatV1.10B1784,2013-03-18 17:17:00,
2013-03-18 10:22:00,56.8,42.2,30.03,SE,146,0.0,1.0,58,0.00,,,0.00,WeatherCatV1.10B1784,2013-03-18 17:22:00,
2013-03-18 10:27:00,57.1,42.5,30.03,SE,146,0.0,0.0,58,0.00,,,0.00,WeatherCatV1.10B1784,2013-03-18 17:27:00,
2013-03-18 10:32:00,57.4,39.9,30.03,SE,146,1.0,1.0,52,0.00,,,0.00,WeatherCatV1.10B1784,2013-03-18 17:32:00,
2013-03-18 10:37:00,57.8,38.2,30.03,SE,146,0.0,0.0,48,0.00,,,0.00,WeatherCatV1.10B1784,2013-03-18 17:37:00,
2013-03-18 10:42:00,58.5,41.9,30.03,SE,146,0.0,1.0,54,0.00,,,0.00,WeatherCatV1.10B1784,2013-03-18 17:42:00,
2013-03-18 10:47:00,59.3,42.7,30.03,SE,146,2.0,2.0,54,0.00,,,0.00,WeatherCatV1.10B1784,2013-03-18 17:47:00,
2013-03-18 10:52:00,59.9,44.2,30.03,SE,140,0.0,3.0,56,0.00,,,0.00,WeatherCatV1.10B1784,2013-03-18 17:52:00,
2013-03-18 10:57:00,60.2,43.0,30.03,SSE,159,0.0,2.0,53,0.00,,,0.00,WeatherCatV1.10B1784,2013-03-18 17:57:00,
2013-03-18 11:02:00,60.2,44.4,30.03,SE,146,0.0,1.0,56,0.00,,,0.00,WeatherCatV1.10B1784,2013-03-18 18:02:00,
2013-03-18 11:07:00,60.4,44.6,30.03,SE,142,1.0,1.0,56,0.00,,,0.00,WeatherCatV1.10B1784,2013-03-18 18:07:00,
2013-03-18 11:12:00,60.5,45.2,30.03,SE,142,0.0,2.0,57,0.00,,,0.00,WeatherCatV1.10B1784,2013-03-18 18:12:00,
2013-03-18 11:17:00,60.5,45.2,30.03,SSE,154,0.0,1.0,57,0.00,,,0.00,WeatherCatV1.10B1784,2013-03-18 18:17:00,
2013-03-18 11:22:00,60.4,44.6,30.03,SSE,162,0.0,0.0,56,0.00,,,0.00,WeatherCatV1.10B1784,2013-03-18 18:22:00,
2013-03-18 11:27:00,60.3,45.0,30.03,SE,142,0.0,1.0,57,0.00,,,0.00,WeatherCatV1.10B1784,2013-03-18 18:27:00,
2013-03-18 11:32:00,60.4,45.6,30.03,SSE,156,0.0,0.0,58,0.00,,,0.00,WeatherCatV1.10B1784,2013-03-18 18:32:00,
2013-03-18 11:37:00,60.4,46.0,30.03,SE,135,0.0,2.0,59,0.00,,,0.00,WeatherCatV1.10B1784,2013-03-18 18:37:00,
2013-03-18 11:42:00,60.5,45.6,30.03,SE,144,0.0,1.0,58,0.00,,,0.00,WeatherCatV1.10B1784,2013-03-18 18:42:00,
2013-03-18 11:47:00,60.9,45.1,30.03,NNW,330,0.0,2.0,56,0.00,,,0.00,WeatherCatV1.10B1784,2013-03-18 18:47:00,
2013-03-18 11:52:00,61.1,45.7,30.03,SE,129,0.0,1.0,57,0.00,,,0.00,WeatherCatV1.10B1784,2013-03-18 18:52:00,
2013-03-18 11:57:00,60.8,45.5,30.03,SE,140,0.0,1.0,57,0.00,,,0.00,WeatherCatV1.10B1784,2013-03-18 18:57:00,
2013-03-18 12:02:00,60.5,46.1,30.03,SE,144,0.0,1.0,59,0.00,,,0.00,WeatherCatV1.10B1784,2013-03-18 19:02:00,
2013-03-18 12:07:00,60.6,46.2,30.03,SSE,165,0.0,2.0,59,0.00,,,0.00,WeatherCatV1.10B1784,2013-03-18 19:07:00,
2013-03-18 12:12:00,60.7,46.7,30.03,SSE,159,0.0,3.0,60,0.00,,,0.00,WeatherCatV1.10B1784,2013-03-18 19:12:00,
2013-03-18 12:17:00,60.9,46.9,30.03,SSE,148,0.0,1.0,60,0.00,,,0.00,WeatherCatV1.10B1784,2013-03-18 19:17:00,
2013-03-18 12:23:00,61.1,46.7,30.03,SSE,148,0.0,2.0,59,0.00,,,0.00,WeatherCatV1.10B1784,2013-03-18 19:23:00,
2013-03-18 12:28:00,61.4,47.8,30.03,SE,143,0.0,1.0,61,0.00,,,0.00,WeatherCatV1.10B1784,2013-03-18 19:28:00,
2013-03-18 12:33:00,62.0,48.0,30.03,SE,130,0.0,1.0,60,0.00,,,0.00,WeatherCatV1.10B1784,2013-03-18 19:33:00,
2013-03-18 12:38:00,62.4,47.4,30.03,SSE,161,0.0,1.0,58,0.00,,,0.00,WeatherCatV1.10B1784,2013-03-18 19:38:00,
2013-03-18 12:43:00,62.6,48.5,30.03,South,171,0.0,0.0,60,0.00,,,0.00,WeatherCatV1.10B1784,2013-03-18 19:43:00,
2013-03-18 12:48:00,63.2,48.2,30.03,SSE,152,1.0,2.0,58,0.00,,,0.00,WeatherCatV1.10B1784,2013-03-18 19:48:00,
2013-03-18 12:53:00,63.6,49.0,30.03,SSE,153,0.0,0.0,59,0.00,,,0.00,WeatherCatV1.10B1784,2013-03-18 19:53:00,
2013-03-18 12:58:00,64.1,48.1,30.03,SE,134,0.0,2.0,56,0.00,,,0.00,WeatherCatV1.10B1784,2013-03-18 19:58:00,
2013-03-18 13:03:00,64.2,48.6,30.03,SSE,151,0.0,1.0,57,0.00,,,0.00,WeatherCatV1.10B1784,2013-03-18 20:03:00,
2013-03-18 13:08:00,64.2,49.1,30.03,SSE,158,0.0,1.0,58,0.00,,,0.00,WeatherCatV1.10B1784,2013-03-18 20:08:00,
2013-03-18 13:13:00,64.2,48.6,30.03,SSE,148,0.0,1.0,57,0.00,,,0.00,WeatherCatV1.10B1784,2013-03-18 20:13:00,
2013-03-18 13:18:00,64.4,48.4,30.03,SSE,159,0.0,2.0,56,0.00,,,0.00,WeatherCatV1.10B1784,2013-03-18 20:18:00,
2013-03-18 13:23:00,64.8,49.2,30.03,SSE,159,1.0,1.0,57,0.00,,,0.00,WeatherCatV1.10B1784,2013-03-18 20:23:00,
2013-03-18 13:28:00,64.8,48.7,30.03,SSE,157,2.0,2.0,56,0.00,,,0.00,WeatherCatV1.10B1784,2013-03-18 20:28:00,
2013-03-18 13:33:00,64.3,49.2,30.03,SE,145,0.0,0.0,58,0.00,,,0.00,WeatherCatV1.10B1784,2013-03-18 20:33:00,
2013-03-18 13:38:00,64.2,48.2,30.03,SE,145,0.0,1.0,56,0.00,,,0.00,WeatherCatV1.10B1784,2013-03-18 20:38:00,
2013-03-18 13:43:00,64.3,48.3,30.01,SE,145,0.0,1.0,56,0.00,,,0.00,WeatherCatV1.10B1784,2013-03-18 20:43:00,
2013-03-18 13:48:00,64.3,48.7,30.01,SE,145,0.0,0.0,57,0.00,,,0.00,WeatherCatV1.10B1784,2013-03-18 20:48:00,
2013-03-18 13:53:00,64.3,48.7,30.01,SE,145,0.0,0.0,57,0.00,,,0.00,WeatherCatV1.10B1784,2013-03-18 20:53:00,
2013-03-18 13:58:00,63.9,47.9,30.01,SE,136,0.0,1.0,56,0.00,,,0.00,WeatherCatV1.10B1784,2013-03-18 20:58:00,
2013-03-18 14:03:00,63.4,47.9,30.01,SE,136,0.0,1.0,57,0.00,,,0.00,WeatherCatV1.10B1784,2013-03-18 21:03:00,
2013-03-18 14:08:00,63.1,48.5,30.01,SE,136,0.0,0.0,59,0.00,,,0.00,WeatherCatV1.10B1784,2013-03-18 21:08:00,
2013-03-18 14:13:00,62.8,47.8,30.00,SSE,157,0.0,0.0,58,0.00,,,0.00,WeatherCatV1.10B1784,2013-03-18 21:13:00,
2013-03-18 14:18:00,62.3,47.8,30.00,SE,144,0.0,0.0,59,0.00,,,0.00,WeatherCatV1.10B1784,2013-03-18 21:18:00,
2013-03-18 14:23:00,62.0,48.8,30.00,SE,144,0.0,0.0,62,0.00,,,0.00,WeatherCatV1.10B1784,2013-03-18 21:23:00,
2013-03-18 14:28:00,61.5,47.9,30.00,SE,144,0.0,1.0,61,0.00,,,0.00,WeatherCatV1.10B1784,2013-03-18 21:28:00,
2013-03-18 14:33:00,61.1,48.0,30.00,SE,144,0.0,0.0,62,0.00,,,0.00,WeatherCatV1.10B1784,2013-03-18 21:33:00,
2013-03-18 14:38:00,61.0,49.1,30.00,SE,144,0.0,0.0,65,0.00,,,0.00,WeatherCatV1.10B1784,2013-03-18 21:38:00,
2013-03-18 14:43:00,60.9,49.1,30.00,SE,144,0.0,0.0,65,0.00,,,0.00,WeatherCatV1.10B1784,2013-03-18 21:43:00,
2013-03-18 14:48:00,61.0,49.1,30.00,SE,144,0.0,1.0,65,0.00,,,0.00,WeatherCatV1.10B1784,2013-03-18 21:48:00,
2013-03-18 14:53:00,61.1,49.2,30.00,SE,144,1.0,2.0,65,0.00,,,0.00,WeatherCatV1.10B1784,2013-03-18 21:53:00,
2013-03-18 14:58:00,61.1,49.7,29.99,SE,144,0.0,0.0,66,0.00,,,0.00,WeatherCatV1.10B1784,2013-03-18 21:58:00,
2013-03-18 15:03:00,61.0,49.1,29.99,SE,144,0.0,1.0,65,0.00,,,0.00,WeatherCatV1.10B1784,2013-03-18 22:03:00,
2013-03-18 15:08:00,61.0,49.1,29.99,SE,144,0.0,0.0,65,0.00,,,0.00,WeatherCatV1.10B1784,2013-03-18 22:08:00,
2013-03-18 15:13:00,61.1,49.7,29.99,SE,144,0.0,0.0,66,0.00,,,0.00,WeatherCatV1.10B1784,2013-03-18 22:13:00,
2013-03-18 15:18:00,61.1,50.1,29.99,SE,144,0.0,0.0,67,0.00,,,0.00,WeatherCatV1.10B1784,2013-03-18 22:18:00,
2013-03-18 15:23:00,61.1,50.1,29.99,SE,144,0.0,0.0,67,0.00,,,0.00,WeatherCatV1.10B1784,2013-03-18 22:23:00,
2013-03-18 15:28:00,61.1,49.7,29.99,SE,144,0.0,0.0,66,0.00,,,0.00,WeatherCatV1.10B1784,2013-03-18 22:28:00,
2013-03-18 15:33:00,61.2,47.2,29.99,SE,144,0.0,0.0,60,0.00,,,0.00,WeatherCatV1.10B1784,2013-03-18 22:33:00,
2013-03-18 15:38:00,61.4,50.3,29.99,SE,144,0.0,0.0,67,0.00,,,0.00,WeatherCatV1.10B1784,2013-03-18 22:38:00,
2013-03-18 15:43:00,61.6,50.1,29.99,SE,144,0.0,0.0,66,0.00,,,0.00,WeatherCatV1.10B1784,2013-03-18 22:43:00,
2013-03-18 15:48:00,61.6,47.1,29.99,NNW,344,1.0,4.0,59,0.00,,,0.00,WeatherCatV1.10B1784,2013-03-18 22:48:00,
2013-03-18 15:53:00,61.6,46.2,29.99,North,352,1.0,2.0,57,0.00,,,0.00,WeatherCatV1.10B1784,2013-03-18 22:53:00,
2013-03-18 15:58:00,61.7,46.3,29.98,NNW,340,0.0,5.0,57,0.00,,,0.00,WeatherCatV1.10B1784,2013-03-18 22:58:00,
2013-03-18 16:03:00,61.9,46.5,29.98,NNE,23,0.0,0.0,57,0.00,,,0.00,WeatherCatV1.10B1784,2013-03-18 23:03:00,
2013-03-18 16:08:00,62.1,44.3,29.98,NNW,337,0.0,1.0,52,0.00,,,0.00,WeatherCatV1.10B1784,2013-03-18 23:08:00,
2013-03-18 16:13:00,62.2,44.4,29.99,NNW,337,2.0,2.0,52,0.00,,,0.00,WeatherCatV1.10B1784,2013-03-18 23:13:00,
2013-03-18 16:18:00,62.2,45.3,29.99,NNW,337,0.0,0.0,54,0.00,,,0.00,WeatherCatV1.10B1784,2013-03-18 23:18:00,
2013-03-18 16:23:00,62.3,50.4,29.99,SE,142,0.0,0.0,65,0.00,,,0.00,WeatherCatV1.10B1784,2013-03-18 23:23:00,
2013-03-18 16:28:00,62.4,50.9,30.00,SSE,153,0.0,1.0,66,0.00,,,0.00,WeatherCatV1.10B1784,2013-03-18 23:28:00,
2013-03-18 16:33:00,62.3,50.4,30.00,SSE,157,0.0,1.0,65,0.00,,,0.00,WeatherCatV1.10B1784,2013-03-18 23:33:00,
2013-03-18 16:38:00,62.2,51.1,30.00,SSE,157,0.0,0.0,67,0.00,,,0.00,WeatherCatV1.10B1784,2013-03-18 23:38:00,
2013-03-18 16:43:00,61.9,50.4,30.00,SSE,157,0.0,2.0,66,0.00,,,0.00,WeatherCatV1.10B1784,2013-03-18 23:43:00,
2013-03-18 16:48:00,61.6,50.9,30.00,SSE,157,0.0,0.0,68,0.00,,,0.00,WeatherCatV1.10B1784,2013-03-18 23:48:00,
2013-03-18 16:53:00,61.3,51.0,30.00,NNW,328,0.0,2.0,69,0.00,,,0.00,WeatherCatV1.10B1784,2013-03-18 23:53:00,
2013-03-18 16:58:00,61.0,50.4,29.98,NNW,329,0.0,1.0,68,0.00,,,0.00,WeatherCatV1.10B1784,2013-03-18 23:58:00,
2013-03-18 17:03:00,60.9,49.1,29.98,NNW,329,1.0,2.0,65,0.00,,,0.00,WeatherCatV1.10B1784,2013-03-19 00:03:00,
2013-03-18 17:08:00,60.8,47.7,29.98,NNW,343,0.0,0.0,62,0.00,,,0.00,WeatherCatV1.10B1784,2013-03-19 00:08:00,
2013-03-18 17:13:00,60.9,47.8,29.99,NNW,343,2.0,2.0,62,0.00,,,0.00,WeatherCatV1.10B1784,2013-03-19 00:13:00,
2013-03-18 17:18:00,60.9,46.9,29.99,North,349,1.0,1.0,60,0.00,,,0.00,WeatherCatV1.10B1784,2013-03-19 00:18:00,
2013-03-18 17:23:00,60.9,46.9,29.99,North,350,0.0,0.0,60,0.00,,,0.00,WeatherCatV1.10B1784,2013-03-19 00:23:00,
2013-03-18 17:28:00,60.8,47.7,29.98,North,350,0.0,0.0,62,0.00,,,0.00,WeatherCatV1.10B1784,2013-03-19 00:28:00,
2013-03-18 17:33:00,60.9,47.8,29.98,North,350,0.0,0.0,62,0.00,,,0.00,WeatherCatV1.10B1784,2013-03-19 00:33:00,
2013-03-18 17:38:00,61.0,50.8,29.98,North,350,0.0,0.0,69,0.00,,,0.00,WeatherCatV1.10B1784,2013-03-19 00:38:00,
2013-03-18 17:43:00,60.9,50.7,29.99,East,85,0.0,0.0,69,0.00,,,0.00,WeatherCatV1.10B1784,2013-03-19 00:43:00,
2013-03-18 17:48:00,60.8,51.3,29.99,East,87,0.0,1.0,71,0.00,,,0.00,WeatherCatV1.10B1784,2013-03-19 00:48:00,
2013-03-18 17:53:00,60.7,50.9,29.99,East,87,0.0,0.0,70,0.00,,,0.00,WeatherCatV1.10B1784,2013-03-19 00:53:00,
2013-03-18 17:58:00,60.5,51.4,29.99,East,87,0.0,0.0,72,0.00,,,0.00,WeatherCatV1.10B1784,2013-03-19 00:58:00,
2013-03-18 18:03:00,60.4,51.7,29.99,East,87,0.0,0.0,73,0.00,,,0.00,WeatherCatV1.10B1784,2013-03-19 01:03:00,
2013-03-18 18:08:00,60.1,51.8,29.99,East,87,0.0,0.0,74,0.00,,,0.00,WeatherCatV1.10B1784,2013-03-19 01:08:00,
2013-03-18 18:13:00,59.9,52.0,29.99,East,87,0.0,0.0,75,0.00,,,0.00,WeatherCatV1.10B1784,2013-03-19 01:13:00,
2013-03-18 18:18:00,59.6,51.7,29.99,East,87,0.0,0.0,75,0.00,,,0.00,WeatherCatV1.10B1784,2013-03-19 01:18:00,
2013-03-18 18:23:00,59.3,51.4,29.99,East,87,0.0,0.0,75,0.00,,,0.00,WeatherCatV1.10B1784,2013-03-19 01:23:00,
2013-03-18 18:28:00,58.9,51.0,29.98,East,87,0.0,0.0,75,0.00,,,0.00,WeatherCatV1.10B1784,2013-03-19 01:28:00,
2013-03-18 18:33:00,58.7,51.2,29.98,East,87,0.0,0.0,76,0.00,,,0.00,WeatherCatV1.10B1784,2013-03-19 01:33:00,
2013-03-18 18:38:00,58.6,50.7,29.98,East,87,0.0,0.0,75,0.00,,,0.00,WeatherCatV1.10B1784,2013-03-19 01:38:00,
2013-03-18 18:43:00,58.3,50.4,29.99,East,87,0.0,0.0,75,0.00,,,0.00,WeatherCatV1.10B1784,2013-03-19 01:43:00,
2013-03-18 18:48:00,57.9,49.7,29.99,East,87,0.0,0.0,74,0.00,,,0.00,WeatherCatV1.10B1784,2013-03-19 01:48:00,
2013-03-18 18:53:00,57.6,50.1,29.99,East,87,0.0,0.0,76,0.00,,,0.00,WeatherCatV1.10B1784,2013-03-19 01:53:00,
2013-03-18 18:58:00,57.3,50.2,30.00,East,87,0.0,0.0,77,0.00,,,0.00,WeatherCatV1.10B1784,2013-03-19 01:58:00,
2013-03-18 19:03:00,57.0,49.9,30.00,East,87,0.0,0.0,77,0.00,,,0.00,WeatherCatV1.10B1784,2013-03-19 02:03:00,
2013-03-18 19:08:00,56.7,49.6,30.00,East,87,0.0,0.0,77,0.00,,,0.00,WeatherCatV1.10B1784,2013-03-19 02:08:00,
2013-03-18 19:13:00,56.2,48.4,30.01,East,87,0.0,0.0,75,0.00,,,0.00,WeatherCatV1.10B1784,2013-03-19 02:13:00,
2013-03-18 19:18:00,55.6,47.4,30.01,East,87,0.0,0.0,74,0.00,,,0.00,WeatherCatV1.10B1784,2013-03-19 02:18:00,
2013-03-18 19:23:00,54.9,46.8,30.01,East,87,0.0,0.0,74,0.00,,,0.00,WeatherCatV1.10B1784,2013-03-19 02:23:00,
2013-03-18 19:28:00,54.2,46.8,30.01,NNE,22,0.0,0.0,76,0.00,,,0.00,WeatherCatV1.10B1784,2013-03-19 02:28:00,
2013-03-18 19:33:00,53.9,46.9,30.01,NNE,22,0.0,0.0,77,0.00,,,0.00,WeatherCatV1.10B1784,2013-03-19 02:33:00,
2013-03-18 19:38:00,53.5,47.1,30.01,NNE,22,0.0,0.0,79,0.00,,,0.00,WeatherCatV1.10B1784,2013-03-19 02:38:00,
2013-03-18 19:43:00,53.4,47.4,30.01,NNE,22,0.0,0.0,80,0.00,,,0.00,WeatherCatV1.10B1784,2013-03-19 02:43:00,
2013-03-18 19:48:00,53.3,47.6,30.01,NNE,22,0.0,0.0,81,0.00,,,0.00,WeatherCatV1.10B1784,2013-03-19 02:48:00,
2013-03-18 19:53:00,53.1,47.4,30.01,NNE,22,0.0,0.0,81,0.00,,,0.00,WeatherCatV1.10B1784,2013-03-19 02:53:00,
2013-03-18 19:58:00,52.9,47.6,30.03,NNE,16,1.0,1.0,82,0.00,,,0.00,WeatherCatV1.10B1784,2013-03-19 02:58:00,
2013-03-18 20:03:00,52.8,47.8,30.03,NNW,335,3.0,3.0,83,0.00,,,0.00,WeatherCatV1.10B1784,2013-03-19 03:03:00,
2013-03-18 20:08:00,52.9,48.2,30.03,NNW,331,1.0,3.0,84,0.00,,,0.00,WeatherCatV1.10B1784,2013-03-19 03:08:00,
2013-03-18 20:13:00,53.2,47.5,30.03,NNW,334,2.0,3.0,81,0.00,,,0.00,WeatherCatV1.10B1784,2013-03-19 03:13:00,
2013-03-18 20:18:00,53.5,46.5,30.03,North,351,1.0,3.0,77,0.00,,,0.00,WeatherCatV1.10B1784,2013-03-19 03:18:00,
2013-03-18 20:23:00,53.7,46.0,30.03,North,351,1.0,2.0,75,0.00,,,0.00,WeatherCatV1.10B1784,2013-03-19 03:23:00,
2013-03-18 20:28:00,53.8,46.4,30.03,NW,321,2.0,2.0,76,0.00,,,0.00,WeatherCatV1.10B1784,2013-03-19 03:28:00,
2013-03-18 20:33:00,53.8,46.4,30.03,NNW,327,0.0,2.0,76,0.00,,,0.00,WeatherCatV1.10B1784,2013-03-19 03:33:00,
2013-03-18 20:38:00,53.8,46.1,30.03,NNW,327,0.0,0.0,75,0.00,,,0.00,WeatherCatV1.10B1784,2013-03-19 03:38:00,
2013-03-18 20:43:00,53.6,44.8,30.02,North,349,5.0,6.0,72,0.00,,,0.00,WeatherCatV1.10B1784,2013-03-19 03:43:00,
2013-03-18 20:48:00,53.5,44.0,30.02,NNW,330,5.0,7.0,70,0.00,,,0.00,WeatherCatV1.10B1784,2013-03-19 03:48:00,
2013-03-18 20:53:00,53.4,43.5,30.02,NW,317,5.0,9.0,69,0.00,,,0.00,WeatherCatV1.10B1784,2013-03-19 03:53:00,
2013-03-18 20:58:00,53.3,44.1,30.03,NNW,339,5.0,7.0,71,0.00,,,0.00,WeatherCatV1.10B1784,2013-03-19 03:58:00,
2013-03-18 21:00:00,53.3,44.1,30.03,NNW,343,4.0,8.0,71,0.00,,,0.00,WeatherCatV1.10B1784,2013-03-19 04:00:00,
2013-03-18 21:01:00,53.3,44.1,30.03,NNW,341,6.0,8.0,71,0.00,,,0.00,WeatherCatV1.10B1784,2013-03-19 04:01:00,
2013-03-18 21:06:00,53.6,43.3,30.03,NNW,334,3.0,5.0,68,0.00,,,0.00,WeatherCatV1.10B1784,2013-03-19 04:06:00,
2013-03-18 21:11:00,53.9,41.2,30.03,NNW,333,4.0,5.0,62,0.00,,,0.00,WeatherCatV1.10B1784,2013-03-19 04:11:00,
2013-03-18 21:16:00,54.2,40.6,30.03,NNW,339,3.0,5.0,60,0.00,,,0.00,WeatherCatV1.10B1784,2013-03-19 04:16:00,
2013-03-18 21:21:00,54.6,36.3,30.03,NNW,330,3.0,4.0,50,0.00,,,0.00,WeatherCatV1.10B1784,2013-03-19 04:21:00,
2013-03-18 21:26:00,55.1,34.7,30.03,NNW,345,2.0,5.0,46,0.00,,,0.00,WeatherCatV1.10B1784,2013-03-19 04:26:00,
2013-03-18 21:31:00,55.5,31.6,30.02,NNW,333,5.0,5.0,40,0.00,,,0.00,WeatherCatV1.10B1784,2013-03-19 04:31:00,
2013-03-18 21:36:00,55.9,30.7,30.02,NNW,333,4.0,5.0,38,0.00,,,0.00,WeatherCatV1.10B1784,2013-03-19 04:36:00,
2013-03-18 21:41:00,56.2,29.6,30.02,NNW,334,3.0,4.0,36,0.00,,,0.00,WeatherCatV1.10B1784,2013-03-19 04:41:00,
2013-03-18 21:46:00,56.3,31.0,30.02,NNW,335,3.0,4.0,38,0.00,,,0.00,WeatherCatV1.10B1784,2013-03-19 04:46:00,
2013-03-18 21:51:00,56.3,32.3,30.02,NNW,335,2.0,2.0,40,0.00,,,0.00,WeatherCatV1.10B1784,2013-03-19 04:51:00,
2013-03-18 21:56:00,56.2,34.0,30.02,NNW,335,0.0,0.0,43,0.00,,,0.00,WeatherCatV1.10B1784,2013-03-19 04:56:00,
2013-03-18 22:01:00,56.0,37.6,30.03,NNW,335,1.0,2.0,50,0.00,,,0.00,WeatherCatV1.10B1784,2013-03-19 05:01:00,
2013-03-18 22:06:00,55.4,38.1,30.03,NNW,333,2.0,2.0,52,0.00,,,0.00,WeatherCatV1.10B1784,2013-03-19 05:06:00,
2013-03-18 22:11:00,54.7,41.9,30.03,NNW,336,0.0,0.0,62,0.00,,,0.00,WeatherCatV1.10B1784,2013-03-19 05:11:00,
2013-03-18 22:16:00,54.2,43.1,30.04,NNW,345,1.0,3.0,66,0.00,,,0.00,WeatherCatV1.10B1784,2013-03-19 05:16:00,
2013-03-18 22:21:00,53.2,43.3,30.04,North,355,1.0,1.0,69,0.00,,,0.00,WeatherCatV1.10B1784,2013-03-19 05:21:00,
2013-03-18 22:26:00,52.0,42.9,30.04,NNW,335,3.0,8.0,71,0.00,,,0.00,WeatherCatV1.10B1784,2013-03-19 05:26:00,
2013-03-18 22:31:00,50.8,42.8,30.03,NNW,333,6.0,7.0,74,0.00,,,0.00,WeatherCatV1.10B1784,2013-03-19 05:31:00,
2013-03-18 22:36:00,50.1,42.8,30.03,NW,325,7.0,8.0,76,0.00,,,0.00,WeatherCatV1.10B1784,2013-03-19 05:36:00,
2013-03-18 22:41:00,49.9,42.3,30.04,NW,324,7.0,9.0,75,0.00,,,0.00,WeatherCatV1.10B1784,2013-03-19 05:41:00,
2013-03-18 22:47:00,50.1,41.4,30.04,NNW,347,7.0,8.0,72,0.00,,,0.00,WeatherCatV1.10B1784,2013-03-19 05:47:00,
2013-03-18 22:52:00,50.9,36.7,30.04,North,0,6.0,7.0,58,0.00,,,0.00,WeatherCatV1.10B1784,2013-03-19 05:52:00,
2013-03-18 22:57:00,51.8,34.7,30.03,NNW,342,4.0,5.0,52,0.00,,,0.00,WeatherCatV1.10B1784,2013-03-19 05:57:00,
2013-03-18 23:02:00,52.5,34.4,30.03,NW,319,3.0,6.0,50,0.00,,,0.00,WeatherCatV1.10B1784,2013-03-19 06:02:00,
2013-03-18 23:07:00,52.9,31.6,30.03,NNW,331,3.0,6.0,44,0.00,,,0.00,WeatherCatV1.10B1784,2013-03-19 06:07:00,
2013-03-18 23:12:00,53.3,29.0,30.03,NNW,336,4.0,5.0,39,0.00,,,0.00,WeatherCatV1.10B1784,2013-03-19 06:12:00,
2013-03-18 23:17:00,53.6,28.0,30.03,NNW,333,4.0,5.0,37,0.00,,,0.00,WeatherCatV1.10B1784,2013-03-19 06:17:00,
2013-03-18 23:22:00,54.0,27.0,30.03,NNW,335,4.0,6.0,35,0.00,,,0.00,WeatherCatV1.10B1784,2013-03-19 06:22:00,
2013-03-18 23:27:00,54.3,27.2,30.03,NNW,340,3.0,6.0,35,0.00,,,0.00,WeatherCatV1.10B1784,2013-03-19 06:27:00,
2013-03-18 23:32:00,54.7,27.6,30.03,NE,42,1.0,4.0,35,0.00,,,0.00,WeatherCatV1.10B1784,2013-03-19 06:32:00,
2013-03-18 23:37:00,55.0,29.2,30.03,NNW,331,4.0,5.0,37,0.00,,,0.00,WeatherCatV1.10B1784,2013-03-19 06:37:00,
2013-03-18 23:42:00,55.0,28.5,30.03,NNW,337,4.0,5.0,36,0.00,,,0.00,WeatherCatV1.10B1784,2013-03-19 06:42:00,
2013-03-18 23:47:00,54.8,34.4,30.03,NNW,341,5.0,5.0,46,0.00,,,0.00,WeatherCatV1.10B1784,2013-03-19 06:47:00,
2013-03-18 23:52:00,53.5,38.2,30.03,NNW,332,5.0,6.0,56,0.00,,,0.00,WeatherCatV1.10B1784,2013-03-19 06:52:00,
2013-03-18 23:57:00,52.4,40.2,30.03,NNW,337,4.0,4.0,63,0.00,,,0.00,WeatherCatV1.10B1784,2013-03-19 06:57:00,